createdAt,value
2023-02-27T00:01:50.013Z,17.12
2023-02-27T00:04:16.351Z,17.10
2023-02-27T00:06:42.679Z,17.08
2023-02-27T00:09:09.124Z,17.11
2023-02-27T00:11:35.388Z,17.14
2023-02-27T00:14:01.729Z,17.14
2023-02-27T00:16:28.081Z,17.12
2023-02-27T00:18:54.477Z,17.07
2023-02-27T00:21:20.832Z,17.00
2023-02-27T00:23:47.165Z,16.98
2023-02-27T00:26:13.492Z,16.94
2023-02-27T00:28:39.886Z,16.91
2023-02-27T00:31:06.316Z,16.92
2023-02-27T00:33:32.588Z,16.90
2023-02-27T00:35:58.930Z,16.88
2023-02-27T00:38:25.282Z,16.87
2023-02-27T00:40:51.651Z,16.85
2023-02-27T00:43:18.024Z,16.82
2023-02-27T00:45:44.377Z,16.80
2023-02-27T00:48:11.077Z,16.79
2023-02-27T00:50:37.392Z,16.80
2023-02-27T00:53:03.735Z,16.80
2023-02-27T00:55:30.085Z,16.78
2023-02-27T00:57:56.429Z,16.68
2023-02-27T01:00:22.738Z,16.61
2023-02-27T01:02:49.243Z,16.56
2023-02-27T01:05:15.566Z,16.61
2023-02-27T01:07:41.894Z,16.59
2023-02-27T01:10:08.254Z,16.60
2023-02-27T01:12:34.653Z,16.59
2023-02-27T01:15:01.013Z,16.58
2023-02-27T01:17:27.396Z,16.60
2023-02-27T01:19:53.750Z,16.61
2023-02-27T01:22:20.134Z,16.60
2023-02-27T01:24:46.482Z,16.68
2023-02-27T01:27:12.824Z,16.72
2023-02-27T01:29:39.197Z,16.73
2023-02-27T01:32:05.661Z,16.63
2023-02-27T01:34:34.148Z,16.64
2023-02-27T01:36:58.253Z,16.67
2023-02-27T01:39:24.570Z,16.65
2023-02-27T01:41:50.968Z,16.65
2023-02-27T01:44:17.320Z,16.67
2023-02-27T01:46:43.740Z,16.69
2023-02-27T01:49:10.058Z,16.69
2023-02-27T01:51:36.444Z,16.71
2023-02-27T01:54:02.779Z,16.75
2023-02-27T01:56:29.175Z,16.75
2023-02-27T01:58:55.475Z,16.73
2023-02-27T02:01:21.918Z,16.66
2023-02-27T02:03:48.231Z,16.60
2023-02-27T02:06:14.613Z,16.59
2023-02-27T02:08:41.008Z,16.59
2023-02-27T02:11:07.387Z,16.61
2023-02-27T02:13:33.704Z,16.67
2023-02-27T02:16:00.057Z,16.68
2023-02-27T02:18:26.381Z,16.70
2023-02-27T02:20:52.769Z,16.70
2023-02-27T02:23:19.115Z,16.73
2023-02-27T02:25:45.491Z,16.77
2023-02-27T02:28:11.808Z,16.78
2023-02-27T02:30:38.301Z,16.70
2023-02-27T02:33:04.521Z,16.64
2023-02-27T02:35:30.865Z,16.56
2023-02-27T02:37:57.196Z,16.46
2023-02-27T02:40:23.573Z,16.37
2023-02-27T02:42:51.337Z,16.29
2023-02-27T02:45:16.289Z,16.19
2023-02-27T02:47:42.653Z,16.14
2023-02-27T02:50:09.006Z,16.10
2023-02-27T02:52:35.349Z,16.08
2023-02-27T02:55:01.692Z,16.05
2023-02-27T02:57:28.058Z,15.92
2023-02-27T02:59:54.457Z,15.91
2023-02-27T03:02:20.776Z,15.93
2023-02-27T03:04:47.175Z,15.99
2023-02-27T03:07:13.674Z,16.00
2023-02-27T03:09:39.843Z,16.01
2023-02-27T03:12:06.211Z,15.99
2023-02-27T03:14:32.554Z,15.94
2023-02-27T03:16:58.948Z,15.91
2023-02-27T03:19:25.296Z,15.94
2023-02-27T03:21:51.604Z,15.81
2023-02-27T03:24:17.967Z,15.80
2023-02-27T03:26:44.286Z,15.77
2023-02-27T03:29:10.656Z,15.76
2023-02-27T03:31:37.034Z,15.74
2023-02-27T03:34:03.324Z,15.74
2023-02-27T03:36:29.959Z,15.71
2023-02-27T03:38:56.335Z,15.68
2023-02-27T03:41:22.646Z,15.64
2023-02-27T03:43:49.014Z,15.60
2023-02-27T03:46:15.378Z,15.51
2023-02-27T03:48:41.749Z,15.49
2023-02-27T03:51:08.109Z,15.49
2023-02-27T03:53:34.496Z,15.49
2023-02-27T03:56:00.865Z,15.49
2023-02-27T03:58:27.221Z,15.47
2023-02-27T04:00:53.543Z,15.45
2023-02-27T04:03:19.887Z,15.39
2023-02-27T04:05:46.209Z,15.36
2023-02-27T04:08:12.563Z,15.30
2023-02-27T04:10:38.898Z,15.24
2023-02-27T04:13:05.285Z,15.22
2023-02-27T04:15:31.604Z,15.24
2023-02-27T04:17:57.942Z,15.26
2023-02-27T04:20:24.264Z,15.28
2023-02-27T04:22:50.643Z,15.28
2023-02-27T04:25:16.968Z,15.20
2023-02-27T04:27:43.380Z,15.13
2023-02-27T04:30:09.705Z,15.08
2023-02-27T04:32:36.257Z,14.96
2023-02-27T04:35:02.465Z,14.94
2023-02-27T04:37:28.832Z,14.93
2023-02-27T04:39:55.185Z,14.94
2023-02-27T04:42:21.563Z,14.97
2023-02-27T04:44:47.934Z,14.97
2023-02-27T04:47:14.386Z,14.94
2023-02-27T04:49:40.677Z,14.84
2023-02-27T04:52:07.057Z,14.80
2023-02-27T04:54:33.443Z,14.70
2023-02-27T04:56:59.814Z,14.67
2023-02-27T04:59:26.164Z,14.67
2023-02-27T05:01:52.717Z,14.70
2023-02-27T05:04:18.932Z,14.71
2023-02-27T05:06:45.340Z,14.72
2023-02-27T05:09:11.795Z,14.71
2023-02-27T05:11:38.102Z,14.73
2023-02-27T05:14:04.610Z,14.74
2023-02-27T05:16:31.095Z,14.73
2023-02-27T05:18:57.321Z,14.77
2023-02-27T05:21:23.718Z,14.74
2023-02-27T05:23:50.121Z,14.66
2023-02-27T05:26:16.503Z,14.58
2023-02-27T05:28:44.949Z,14.55
2023-02-27T05:31:09.186Z,14.48
2023-02-27T05:33:35.536Z,14.57
2023-02-27T05:36:01.924Z,15.00
2023-02-27T05:38:28.244Z,15.42
2023-02-27T05:40:54.647Z,15.52
2023-02-27T05:43:21.006Z,15.32
2023-02-27T05:45:47.410Z,15.15
2023-02-27T05:48:13.684Z,15.00
2023-02-27T05:50:40.084Z,14.91
2023-02-27T05:53:06.487Z,14.86
2023-02-27T05:55:32.808Z,14.82
2023-02-27T05:57:59.159Z,14.81
2023-02-27T06:00:25.741Z,14.80
2023-02-27T06:02:52.096Z,14.82
2023-02-27T06:05:18.471Z,14.87
2023-02-27T06:07:44.797Z,14.91
2023-02-27T06:10:11.178Z,14.95
2023-02-27T06:12:37.497Z,15.01
2023-02-27T06:15:03.844Z,15.04
2023-02-27T06:17:30.165Z,15.07
2023-02-27T06:19:56.707Z,15.14
2023-02-27T06:22:23.082Z,15.20
2023-02-27T06:24:49.466Z,15.27
2023-02-27T06:27:15.879Z,15.35
2023-02-27T06:29:42.218Z,15.44
2023-02-27T06:32:08.558Z,15.54
2023-02-27T06:34:34.886Z,15.74
2023-02-27T06:37:03.262Z,15.95
2023-02-27T06:39:27.601Z,16.11
2023-02-27T06:41:53.921Z,16.24
2023-02-27T06:44:20.294Z,16.30
2023-02-27T06:46:46.710Z,16.33
2023-02-27T06:49:13.108Z,16.32
2023-02-27T06:51:39.473Z,16.31
2023-02-27T06:54:05.858Z,16.31
2023-02-27T06:56:32.248Z,16.34
2023-02-27T06:58:59.674Z,16.38
2023-02-27T07:01:25.471Z,16.46
2023-02-27T07:03:51.724Z,16.55
2023-02-27T07:06:18.132Z,16.63
2023-02-27T07:09:01.491Z,16.67
2023-02-27T07:11:10.848Z,16.76
2023-02-27T07:13:37.241Z,16.91
2023-02-27T07:16:03.644Z,17.12
2023-02-27T07:18:29.946Z,17.38
2023-02-27T07:20:56.298Z,17.66
2023-02-27T07:23:22.642Z,18.00
2023-02-27T07:25:49.071Z,18.38
2023-02-27T07:28:15.441Z,18.74
2023-02-27T07:30:41.762Z,19.20
2023-02-27T07:33:08.350Z,19.68
2023-02-27T07:35:34.711Z,20.18
2023-02-27T07:38:01.040Z,20.67
2023-02-27T07:40:27.507Z,21.13
2023-02-27T07:42:54.085Z,21.56
2023-02-27T07:45:20.413Z,21.99
2023-02-27T07:47:46.860Z,22.40
2023-02-27T07:50:13.248Z,22.79
2023-02-27T07:52:39.646Z,23.17
2023-02-27T07:55:06.336Z,23.48
2023-02-27T07:57:32.745Z,23.76
2023-02-27T07:59:59.107Z,23.94
2023-02-27T08:02:25.467Z,24.11
2023-02-27T08:04:51.882Z,24.32
2023-02-27T08:07:18.369Z,24.47
2023-02-27T08:09:44.748Z,24.61
2023-02-27T08:12:11.098Z,24.73
2023-02-27T08:14:37.421Z,24.88
2023-02-27T08:17:03.851Z,25.11
2023-02-27T08:19:30.173Z,25.33
2023-02-27T08:21:56.584Z,25.55
2023-02-27T08:24:22.954Z,25.76
2023-02-27T08:26:49.318Z,26.00
2023-02-27T08:29:17.072Z,26.15
2023-02-27T08:31:42.131Z,26.26
2023-02-27T08:34:10.645Z,26.42
2023-02-27T08:36:34.772Z,26.48
2023-02-27T08:39:01.096Z,26.55
2023-02-27T08:41:27.477Z,26.74
2023-02-27T08:43:53.845Z,27.04
2023-02-27T08:46:20.171Z,27.28
2023-02-27T08:48:46.522Z,27.45
2023-02-27T08:51:12.908Z,27.63
2023-02-27T08:53:41.434Z,27.82
2023-02-27T08:56:07.762Z,28.03
2023-02-27T08:58:34.135Z,28.26
2023-02-27T09:01:00.476Z,28.52
2023-02-27T09:03:26.815Z,28.78
2023-02-27T09:05:53.193Z,28.98
2023-02-27T09:08:19.540Z,29.13
2023-02-27T09:10:45.899Z,29.36
2023-02-27T09:13:12.234Z,29.67
2023-02-27T09:15:38.628Z,29.97
2023-02-27T09:18:05.155Z,30.22
2023-02-27T09:20:31.550Z,30.38
2023-02-27T09:22:57.944Z,30.48
2023-02-27T09:25:24.309Z,30.57
2023-02-27T09:27:50.673Z,30.54
2023-02-27T09:30:17.052Z,30.49
2023-02-27T09:32:43.476Z,30.45
2023-02-27T09:35:09.763Z,30.50
2023-02-27T09:37:36.166Z,30.52
2023-02-27T09:40:02.652Z,30.52
2023-02-27T09:42:30.277Z,30.53
2023-02-27T09:44:56.870Z,30.47
2023-02-27T09:47:23.238Z,30.39
2023-02-27T09:49:49.578Z,30.33
2023-02-27T09:52:15.976Z,30.27
2023-02-27T09:54:44.558Z,30.18
2023-02-27T09:57:08.737Z,30.06
2023-02-27T09:59:35.124Z,29.90
2023-02-27T10:02:01.504Z,29.71
2023-02-27T10:04:27.814Z,29.52
2023-02-27T10:06:54.448Z,29.36
2023-02-27T10:09:21.041Z,29.23
2023-02-27T10:11:47.409Z,29.13
2023-02-27T10:14:13.725Z,29.04
2023-02-27T10:16:40.154Z,28.97
2023-02-27T10:19:06.431Z,28.92
2023-02-27T10:21:33.092Z,28.93
2023-02-27T10:23:59.174Z,29.12
2023-02-27T10:26:25.511Z,29.39
2023-02-27T10:28:51.874Z,29.72
2023-02-27T10:31:20.164Z,30.13
2023-02-27T10:33:44.695Z,30.52
2023-02-27T10:36:12.435Z,30.93
2023-02-27T10:38:37.582Z,31.20
2023-02-27T10:41:04.104Z,31.40
2023-02-27T10:43:30.461Z,31.33
2023-02-27T10:45:56.956Z,31.15
2023-02-27T10:48:23.218Z,31.19
2023-02-27T10:50:49.583Z,31.16
2023-02-27T10:53:15.904Z,30.95
2023-02-27T10:55:42.286Z,30.68
2023-02-27T10:58:08.679Z,30.57
2023-02-27T11:00:35.065Z,30.68
2023-02-27T11:03:01.379Z,30.79
2023-02-27T11:05:27.794Z,30.69
2023-02-27T11:07:54.098Z,30.50
2023-02-27T11:10:20.464Z,30.31
2023-02-27T11:12:46.790Z,30.23
2023-02-27T11:15:13.226Z,30.18
2023-02-27T11:17:39.647Z,30.06
2023-02-27T11:20:06.056Z,29.93
2023-02-27T11:22:32.346Z,29.94
2023-02-27T11:24:58.761Z,29.91
2023-02-27T11:27:25.172Z,29.80
2023-02-27T11:29:51.633Z,29.63
2023-02-27T11:32:18.055Z,29.44
2023-02-27T11:34:44.385Z,29.29
2023-02-27T11:37:10.738Z,29.17
2023-02-27T11:39:37.095Z,29.02
2023-02-27T11:42:03.500Z,28.88
2023-02-27T11:44:38.707Z,28.71
2023-02-27T11:46:57.171Z,28.53
2023-02-27T11:49:22.525Z,28.36
2023-02-27T11:51:48.877Z,28.26
2023-02-27T11:54:15.267Z,28.12
2023-02-27T11:56:41.888Z,27.96
2023-02-27T11:59:08.231Z,27.81
2023-02-27T12:01:34.557Z,27.70
2023-02-27T12:04:00.932Z,27.44
2023-02-27T12:06:27.225Z,27.28
2023-02-27T12:08:53.708Z,27.26
2023-02-27T12:11:20.034Z,27.30
2023-02-27T12:13:46.371Z,27.27
2023-02-27T12:16:12.775Z,27.30
2023-02-27T12:18:39.113Z,27.44
2023-02-27T12:21:05.471Z,27.52
2023-02-27T12:23:32.094Z,27.61
2023-02-27T12:25:58.410Z,27.65
2023-02-27T12:28:24.759Z,27.70
2023-02-27T12:30:51.336Z,27.85
2023-02-27T12:33:17.688Z,27.93
2023-02-27T12:35:44.081Z,28.02
2023-02-27T12:38:10.417Z,28.11
2023-02-27T12:40:36.769Z,28.11
2023-02-27T12:43:03.113Z,28.14
2023-02-27T12:45:29.525Z,28.13
2023-02-27T12:47:55.845Z,28.10
2023-02-27T12:50:22.201Z,27.97
2023-02-27T12:52:48.553Z,27.84
2023-02-27T12:55:14.915Z,27.68
2023-02-27T12:57:41.336Z,27.50
2023-02-27T13:00:07.720Z,27.28
2023-02-27T13:02:34.068Z,27.04
2023-02-27T13:05:00.426Z,26.73
2023-02-27T13:07:26.774Z,26.54
2023-02-27T13:09:53.251Z,26.33
2023-02-27T13:12:19.639Z,26.06
2023-02-27T13:14:45.982Z,25.88
2023-02-27T13:17:12.367Z,25.76
2023-02-27T13:19:38.677Z,25.79
2023-02-27T13:22:05.026Z,25.77
2023-02-27T13:24:31.390Z,25.71
2023-02-27T13:26:57.767Z,25.62
2023-02-27T13:29:24.134Z,25.42
2023-02-27T13:31:50.622Z,25.27
2023-02-27T13:34:16.802Z,25.19
2023-02-27T13:36:43.226Z,25.10
2023-02-27T13:39:09.621Z,25.07
2023-02-27T13:41:36.313Z,25.00
2023-02-27T13:44:02.392Z,24.95
2023-02-27T13:46:28.732Z,24.89
2023-02-27T13:48:55.093Z,24.77
2023-02-27T13:51:21.466Z,24.64
2023-02-27T13:53:47.825Z,24.50
2023-02-27T13:56:14.158Z,24.37
2023-02-27T13:58:40.633Z,24.21
2023-02-27T14:01:06.932Z,24.03
2023-02-27T14:03:33.269Z,23.85
2023-02-27T14:05:59.652Z,23.67
2023-02-27T14:08:26.007Z,23.47
2023-02-27T14:10:52.386Z,23.25
2023-02-27T14:13:18.706Z,23.08
2023-02-27T14:15:45.204Z,22.93
2023-02-27T14:18:22.856Z,22.79
2023-02-27T14:20:37.951Z,22.68
2023-02-27T14:23:04.285Z,22.73
2023-02-27T14:25:30.654Z,22.55
2023-02-27T14:27:57.271Z,22.32
2023-02-27T14:30:23.456Z,21.93
2023-02-27T14:32:49.760Z,21.56
2023-02-27T14:35:16.155Z,21.31
2023-02-27T14:37:42.471Z,21.13
2023-02-27T14:40:09.845Z,20.89
2023-02-27T14:42:35.188Z,20.73
2023-02-27T14:45:01.599Z,20.64
2023-02-27T14:47:27.952Z,20.50
2023-02-27T14:49:54.292Z,20.35
2023-02-27T14:52:20.693Z,20.18
2023-02-27T14:54:47.054Z,20.04
2023-02-27T14:57:13.384Z,19.92
2023-02-27T14:59:39.760Z,19.82
2023-02-27T15:02:06.119Z,19.71
2023-02-27T15:04:32.591Z,19.62
2023-02-27T15:06:58.867Z,19.53
2023-02-27T15:09:25.218Z,19.45
2023-02-27T15:12:03.187Z,19.37
2023-02-27T15:14:17.924Z,19.30
2023-02-27T15:16:44.302Z,19.22
2023-02-27T15:19:10.649Z,19.10
2023-02-27T15:21:36.991Z,19.01
2023-02-27T15:24:03.343Z,18.91
2023-02-27T15:26:29.911Z,18.81
2023-02-27T15:28:56.012Z,18.70
2023-02-27T15:31:23.145Z,18.61
2023-02-27T15:33:49.562Z,18.53
2023-02-27T15:36:15.917Z,18.40
2023-02-27T15:38:42.257Z,18.28
2023-02-27T15:41:08.607Z,18.16
2023-02-27T15:43:35.017Z,18.01
2023-02-27T15:46:01.448Z,17.91
2023-02-27T15:48:27.791Z,17.84
2023-02-27T15:50:54.198Z,17.79
2023-02-27T15:53:20.577Z,17.74
2023-02-27T15:55:46.912Z,17.66
2023-02-27T15:58:13.312Z,17.60
2023-02-27T16:00:39.606Z,17.57
2023-02-27T16:03:06.157Z,17.48
2023-02-27T16:05:32.534Z,17.38
2023-02-27T16:07:58.938Z,17.39
2023-02-27T16:10:25.309Z,17.41
2023-02-27T16:12:51.679Z,17.46
2023-02-27T16:15:18.096Z,17.40
2023-02-27T16:17:44.495Z,17.30
2023-02-27T16:20:10.817Z,17.27
2023-02-27T16:22:37.166Z,17.20
2023-02-27T16:25:04.375Z,17.15
2023-02-27T16:27:32.901Z,17.07
2023-02-27T16:29:59.231Z,17.04
2023-02-27T16:32:25.931Z,16.96
2023-02-27T16:34:52.210Z,16.90
2023-02-27T16:37:18.591Z,16.83
2023-02-27T16:39:45.244Z,16.75
2023-02-27T16:42:11.744Z,16.72
2023-02-27T16:44:38.103Z,16.70
2023-02-27T16:47:04.483Z,16.67
2023-02-27T16:49:32.646Z,16.65
2023-02-27T16:51:57.338Z,16.62
2023-02-27T16:54:23.648Z,16.55
2023-02-27T16:56:50.254Z,16.41
2023-02-27T16:59:16.570Z,16.36
2023-02-27T17:01:42.956Z,16.29
2023-02-27T17:04:24.632Z,16.17
2023-02-27T17:06:36.232Z,16.12
2023-02-27T17:09:02.685Z,16.07
2023-02-27T17:11:28.921Z,16.00
2023-02-27T17:13:55.279Z,15.96
2023-02-27T17:16:21.718Z,15.97
2023-02-27T17:18:47.981Z,15.95
2023-02-27T17:21:14.546Z,15.92
2023-02-27T17:23:40.925Z,15.96
2023-02-27T17:26:07.307Z,15.94
2023-02-27T17:28:33.791Z,15.84
2023-02-27T17:31:00.307Z,15.73
2023-02-27T17:33:26.564Z,15.61
2023-02-27T17:35:52.948Z,15.55
2023-02-27T17:38:19.337Z,15.55
2023-02-27T17:40:45.716Z,15.55
2023-02-27T17:43:12.031Z,15.51
2023-02-27T17:45:38.481Z,15.50
2023-02-27T17:48:04.898Z,15.46
2023-02-27T17:50:31.254Z,15.44
2023-02-27T17:52:57.710Z,15.42
2023-02-27T17:55:24.088Z,15.40
2023-02-27T17:57:50.425Z,15.37
2023-02-27T18:00:16.814Z,15.33
2023-02-27T18:02:43.285Z,15.25
2023-02-27T18:05:09.614Z,15.14
2023-02-27T18:07:35.962Z,15.06
2023-02-27T18:10:02.380Z,15.01
2023-02-27T18:12:28.727Z,14.95
2023-02-27T18:14:55.128Z,14.89
2023-02-27T18:17:21.446Z,14.84
2023-02-27T18:19:47.836Z,14.77
2023-02-27T18:22:14.154Z,14.66
2023-02-27T18:24:40.531Z,14.59
2023-02-27T18:27:07.230Z,14.55
2023-02-27T18:29:33.602Z,14.57
2023-02-27T18:31:59.947Z,14.55
2023-02-27T18:34:26.372Z,14.54
2023-02-27T18:36:52.681Z,14.51
2023-02-27T18:39:21.466Z,14.44
2023-02-27T18:41:48.914Z,14.49
2023-02-27T18:44:15.301Z,14.52
2023-02-27T18:46:41.657Z,14.55
2023-02-27T18:49:07.969Z,14.60
2023-02-27T18:51:34.310Z,14.63
2023-02-27T18:54:00.658Z,14.56
2023-02-27T18:56:27.530Z,14.52
2023-02-27T18:58:55.855Z,14.49
2023-02-27T19:01:22.177Z,14.44
2023-02-27T19:03:48.829Z,14.39
2023-02-27T19:06:15.180Z,14.33
2023-02-27T19:08:41.572Z,14.26
2023-02-27T19:11:07.904Z,14.22
2023-02-27T19:13:34.267Z,14.16
2023-02-27T19:16:00.704Z,14.12
2023-02-27T19:18:27.044Z,14.11
2023-02-27T19:20:53.939Z,14.07
2023-02-27T19:23:19.809Z,14.03
2023-02-27T19:25:46.185Z,14.00
2023-02-27T19:28:12.590Z,13.99
2023-02-27T19:30:38.942Z,13.98
2023-02-27T19:33:05.361Z,13.96
2023-02-27T19:35:31.713Z,13.99
2023-02-27T19:37:58.146Z,13.97
2023-02-27T19:40:24.658Z,13.96
2023-02-27T19:42:50.983Z,13.92
2023-02-27T19:45:17.470Z,13.91
2023-02-27T19:47:43.807Z,13.89
2023-02-27T19:50:10.165Z,13.87
2023-02-27T19:52:36.551Z,13.84
2023-02-27T19:55:03.158Z,13.82
2023-02-27T19:57:29.806Z,13.78
2023-02-27T19:59:56.140Z,13.74
2023-02-27T20:02:22.554Z,13.70
2023-02-27T20:04:48.921Z,13.67
2023-02-27T20:07:15.283Z,13.63
2023-02-27T20:09:41.663Z,13.61
2023-02-27T20:12:07.999Z,13.58
2023-02-27T20:14:34.337Z,13.55
2023-02-27T20:17:00.717Z,13.52
2023-02-27T20:19:27.057Z,13.50
2023-02-27T20:21:53.418Z,13.49
2023-02-27T20:24:19.948Z,13.47
2023-02-27T20:26:47.730Z,13.44
2023-02-27T20:29:12.955Z,13.42
2023-02-27T20:31:39.400Z,13.41
2023-02-27T20:34:06.709Z,13.40
2023-02-27T20:36:33.020Z,13.37
2023-02-27T20:38:59.393Z,13.37
2023-02-27T20:41:28.232Z,13.36
2023-02-27T20:43:52.091Z,13.35
2023-02-27T20:46:18.741Z,13.34
2023-02-27T20:48:45.031Z,13.33
2023-02-27T20:51:11.350Z,13.32
2023-02-27T20:53:40.241Z,13.31
2023-02-27T20:56:06.808Z,13.32
2023-02-27T20:58:33.137Z,13.31
2023-02-27T21:01:00.548Z,13.31
2023-02-27T21:03:29.224Z,13.30
2023-02-27T21:05:53.198Z,13.28
2023-02-27T21:08:19.657Z,13.28
2023-02-27T21:10:45.976Z,13.28
2023-02-27T21:13:12.355Z,13.29
2023-02-27T21:15:38.707Z,13.28
2023-02-27T21:18:05.057Z,13.27
2023-02-27T21:20:31.438Z,13.24
2023-02-27T21:22:57.767Z,13.24
2023-02-27T21:25:24.118Z,13.24
2023-02-27T21:27:50.513Z,13.22
2023-02-27T21:30:16.842Z,13.21
2023-02-27T21:32:43.213Z,13.21
2023-02-27T21:35:09.570Z,13.21
2023-02-27T21:37:35.911Z,13.22
2023-02-27T21:40:02.237Z,13.22
2023-02-27T21:42:28.667Z,13.21
2023-02-27T21:44:54.981Z,13.20
2023-02-27T21:47:21.368Z,13.21
2023-02-27T21:49:47.679Z,13.21
2023-02-27T21:52:14.048Z,13.21
2023-02-27T21:54:40.453Z,13.21
2023-02-27T21:57:06.787Z,13.21
2023-02-27T21:59:33.197Z,13.21
2023-02-27T22:01:59.623Z,13.21
2023-02-27T22:04:25.869Z,13.22
2023-02-27T22:06:54.698Z,13.23
2023-02-27T22:09:21.022Z,13.23
2023-02-27T22:11:49.608Z,13.23
2023-02-27T22:14:15.937Z,13.23
2023-02-27T22:16:42.358Z,13.23
2023-02-27T22:19:08.708Z,13.24
2023-02-27T22:21:35.053Z,13.26
2023-02-27T22:24:01.414Z,13.26
2023-02-27T22:26:27.815Z,13.26
2023-02-27T22:28:54.169Z,13.26
2023-02-27T22:31:20.616Z,13.27
2023-02-27T22:33:46.879Z,13.27
2023-02-27T22:36:13.266Z,13.26
2023-02-27T22:38:39.609Z,13.26
2023-02-27T22:41:05.985Z,13.24
2023-02-27T22:43:32.293Z,13.21
2023-02-27T22:45:58.682Z,13.17
2023-02-27T22:48:25.054Z,13.15
2023-02-27T22:50:51.443Z,13.15
2023-02-27T22:53:17.806Z,13.14
2023-02-27T22:55:44.194Z,13.11
2023-02-27T22:58:10.513Z,13.09
2023-02-27T23:00:36.867Z,13.06
2023-02-27T23:03:03.197Z,13.04
2023-02-27T23:05:29.636Z,13.02
2023-02-27T23:07:55.996Z,12.99
2023-02-27T23:10:22.329Z,12.96
2023-02-27T23:12:48.684Z,12.95
2023-02-27T23:15:15.079Z,12.94
2023-02-27T23:17:52.011Z,12.92
2023-02-27T23:20:07.839Z,12.89
2023-02-27T23:22:34.192Z,12.86
2023-02-27T23:25:00.566Z,12.85
2023-02-27T23:27:27.206Z,12.85
2023-02-27T23:29:53.587Z,12.83
2023-02-27T23:32:20.073Z,12.82
2023-02-27T23:34:49.573Z,12.80
2023-02-27T23:37:12.727Z,12.79
2023-02-27T23:39:39.067Z,12.78
2023-02-27T23:42:05.413Z,12.77
2023-02-27T23:44:31.790Z,12.77
2023-02-27T23:46:58.109Z,12.76
2023-02-27T23:49:24.501Z,12.76
2023-02-27T23:51:50.852Z,12.76
2023-02-27T23:54:17.240Z,12.76
2023-02-27T23:56:43.916Z,12.75
2023-02-27T23:59:10.311Z,12.75
